sensor_id;sensor_type;location;lat;lon;timestamp;temperature;humidity
20885;DHT22;10602;48.000;9.654;2022-07-17T00:00:30;15.50;86.00
20885;DHT22;10602;48.000;9.654;2022-07-17T00:02:58;15.50;85.80
20885;DHT22;10602;48.000;9.654;2022-07-17T00:05:25;15.40;86.40
20885;DHT22;10602;48.000;9.654;2022-07-17T00:07:53;15.40;87.30
20885;DHT22;10602;48.000;9.654;2022-07-17T00:10:20;15.40;87.10
20885;DHT22;10602;48.000;9.654;2022-07-17T00:12:48;15.40;86.90
20885;DHT22;10602;48.000;9.654;2022-07-17T00:15:15;15.40;86.80
20885;DHT22;10602;48.000;9.654;2022-07-17T00:17:43;15.40;87.10
20885;DHT22;10602;48.000;9.654;2022-07-17T00:20:11;15.40;87.30
20885;DHT22;10602;48.000;9.654;2022-07-17T00:22:39;15.30;87.20
20885;DHT22;10602;48.000;9.654;2022-07-17T00:25:08;15.20;87.20
20885;DHT22;10602;48.000;9.654;2022-07-17T00:27:37;15.20;87.90
20885;DHT22;10602;48.000;9.654;2022-07-17T00:30:05;15.20;88.00
20885;DHT22;10602;48.000;9.654;2022-07-17T00:32:34;15.20;88.50
20885;DHT22;10602;48.000;9.654;2022-07-17T00:35:02;15.20;88.50
20885;DHT22;10602;48.000;9.654;2022-07-17T00:37:29;15.20;88.90
20885;DHT22;10602;48.000;9.654;2022-07-17T00:39:57;15.20;89.20
20885;DHT22;10602;48.000;9.654;2022-07-17T00:42:25;15.10;89.50
20885;DHT22;10602;48.000;9.654;2022-07-17T00:44:52;15.10;89.40
20885;DHT22;10602;48.000;9.654;2022-07-17T00:47:21;15.10;88.70
20885;DHT22;10602;48.000;9.654;2022-07-17T00:49:48;15.00;89.70
20885;DHT22;10602;48.000;9.654;2022-07-17T00:52:17;15.00;90.20
20885;DHT22;10602;48.000;9.654;2022-07-17T00:54:46;15.00;90.50
20885;DHT22;10602;48.000;9.654;2022-07-17T00:57:15;14.90;90.50
20885;DHT22;10602;48.000;9.654;2022-07-17T00:59:43;14.90;90.80
20885;DHT22;10602;48.000;9.654;2022-07-17T01:02:12;14.90;90.80
20885;DHT22;10602;48.000;9.654;2022-07-17T01:04:43;14.80;91.00
20885;DHT22;10602;48.000;9.654;2022-07-17T01:07:10;14.80;91.10
20885;DHT22;10602;48.000;9.654;2022-07-17T01:09:38;14.80;91.30
20885;DHT22;10602;48.000;9.654;2022-07-17T01:12:07;14.80;91.40
20885;DHT22;10602;48.000;9.654;2022-07-17T01:14:36;14.80;91.40
20885;DHT22;10602;48.000;9.654;2022-07-17T01:17:03;14.80;91.80
20885;DHT22;10602;48.000;9.654;2022-07-17T01:19:31;14.80;91.90
20885;DHT22;10602;48.000;9.654;2022-07-17T01:21:58;14.80;92.00
20885;DHT22;10602;48.000;9.654;2022-07-17T01:24:26;14.80;92.10
20885;DHT22;10602;48.000;9.654;2022-07-17T01:26:53;14.70;92.50
20885;DHT22;10602;48.000;9.654;2022-07-17T01:29:22;14.70;92.70
20885;DHT22;10602;48.000;9.654;2022-07-17T01:31:50;14.70;92.60
20885;DHT22;10602;48.000;9.654;2022-07-17T01:34:17;14.70;93.00
20885;DHT22;10602;48.000;9.654;2022-07-17T01:36:45;14.70;93.00
20885;DHT22;10602;48.000;9.654;2022-07-17T01:39:12;14.60;93.00
20885;DHT22;10602;48.000;9.654;2022-07-17T01:41:40;14.60;93.10
20885;DHT22;10602;48.000;9.654;2022-07-17T01:44:08;14.60;92.80
20885;DHT22;10602;48.000;9.654;2022-07-17T01:46:35;14.50;93.30
20885;DHT22;10602;48.000;9.654;2022-07-17T01:49:03;14.50;93.50
20885;DHT22;10602;48.000;9.654;2022-07-17T01:51:30;14.50;93.60
20885;DHT22;10602;48.000;9.654;2022-07-17T01:53:58;14.40;93.70
20885;DHT22;10602;48.000;9.654;2022-07-17T01:56:26;14.50;94.00
20885;DHT22;10602;48.000;9.654;2022-07-17T01:58:53;14.50;94.10
20885;DHT22;10602;48.000;9.654;2022-07-17T02:01:21;14.50;94.20
20885;DHT22;10602;48.000;9.654;2022-07-17T02:03:48;14.40;94.30
20885;DHT22;10602;48.000;9.654;2022-07-17T02:06:16;14.40;94.50
20885;DHT22;10602;48.000;9.654;2022-07-17T02:08:44;14.30;94.60
20885;DHT22;10602;48.000;9.654;2022-07-17T02:11:11;14.30;95.20
20885;DHT22;10602;48.000;9.654;2022-07-17T02:13:39;14.20;95.30
20885;DHT22;10602;48.000;9.654;2022-07-17T02:16:06;14.20;95.70
20885;DHT22;10602;48.000;9.654;2022-07-17T02:18:34;14.20;95.70
20885;DHT22;10602;48.000;9.654;2022-07-17T02:21:02;14.20;95.70
20885;DHT22;10602;48.000;9.654;2022-07-17T02:23:29;14.20;96.00
20885;DHT22;10602;48.000;9.654;2022-07-17T02:25:57;14.10;96.30
20885;DHT22;10602;48.000;9.654;2022-07-17T02:28:24;14.10;96.50
20885;DHT22;10602;48.000;9.654;2022-07-17T02:30:52;14.10;96.70
20885;DHT22;10602;48.000;9.654;2022-07-17T02:33:19;14.10;96.70
20885;DHT22;10602;48.000;9.654;2022-07-17T02:35:47;14.10;97.10
20885;DHT22;10602;48.000;9.654;2022-07-17T02:38:14;14.10;97.10
20885;DHT22;10602;48.000;9.654;2022-07-17T02:40:42;14.10;96.90
20885;DHT22;10602;48.000;9.654;2022-07-17T02:43:10;14.00;97.00
20885;DHT22;10602;48.000;9.654;2022-07-17T02:45:38;14.00;96.90
20885;DHT22;10602;48.000;9.654;2022-07-17T02:48:06;14.00;97.20
20885;DHT22;10602;48.000;9.654;2022-07-17T02:50:33;13.90;97.20
20885;DHT22;10602;48.000;9.654;2022-07-17T02:53:01;13.90;97.80
20885;DHT22;10602;48.000;9.654;2022-07-17T02:55:28;13.80;97.70
20885;DHT22;10602;48.000;9.654;2022-07-17T02:57:56;13.80;98.10
20885;DHT22;10602;48.000;9.654;2022-07-17T03:00:24;13.80;98.10
20885;DHT22;10602;48.000;9.654;2022-07-17T03:02:53;13.80;98.40
20885;DHT22;10602;48.000;9.654;2022-07-17T03:05:21;13.80;98.30
20885;DHT22;10602;48.000;9.654;2022-07-17T03:07:49;13.80;98.40
20885;DHT22;10602;48.000;9.654;2022-07-17T03:10:17;13.80;98.60
20885;DHT22;10602;48.000;9.654;2022-07-17T03:12:45;13.70;98.60
20885;DHT22;10602;48.000;9.654;2022-07-17T03:15:12;13.70;98.80
20885;DHT22;10602;48.000;9.654;2022-07-17T03:17:40;13.60;98.90
20885;DHT22;10602;48.000;9.654;2022-07-17T03:20:09;13.60;99.10
20885;DHT22;10602;48.000;9.654;2022-07-17T03:22:37;13.60;99.30
20885;DHT22;10602;48.000;9.654;2022-07-17T03:25:05;13.60;99.20
20885;DHT22;10602;48.000;9.654;2022-07-17T03:27:33;13.50;99.60
20885;DHT22;10602;48.000;9.654;2022-07-17T03:30:00;13.50;99.60
20885;DHT22;10602;48.000;9.654;2022-07-17T03:32:28;13.50;99.70
20885;DHT22;10602;48.000;9.654;2022-07-17T03:34:55;13.50;99.90
20885;DHT22;10602;48.000;9.654;2022-07-17T03:37:23;13.40;99.90
20885;DHT22;10602;48.000;9.654;2022-07-17T03:39:50;13.40;99.90
20885;DHT22;10602;48.000;9.654;2022-07-17T03:42:18;13.40;99.90
20885;DHT22;10602;48.000;9.654;2022-07-17T03:44:45;13.40;99.90
20885;DHT22;10602;48.000;9.654;2022-07-17T03:47:13;13.40;99.90
20885;DHT22;10602;48.000;9.654;2022-07-17T03:49:40;13.40;99.90
20885;DHT22;10602;48.000;9.654;2022-07-17T03:52:08;13.40;99.90
20885;DHT22;10602;48.000;9.654;2022-07-17T03:54:35;13.40;99.90
20885;DHT22;10602;48.000;9.654;2022-07-17T03:57:03;13.30;99.90
20885;DHT22;10602;48.000;9.654;2022-07-17T03:59:30;13.40;99.90
20885;DHT22;10602;48.000;9.654;2022-07-17T04:01:58;13.40;99.90
20885;DHT22;10602;48.000;9.654;2022-07-17T04:04:25;13.40;99.90
20885;DHT22;10602;48.000;9.654;2022-07-17T04:06:53;13.50;99.90
20885;DHT22;10602;48.000;9.654;2022-07-17T04:09:20;13.50;99.90
20885;DHT22;10602;48.000;9.654;2022-07-17T04:11:48;13.50;99.90
20885;DHT22;10602;48.000;9.654;2022-07-17T04:14:15;13.50;99.90
20885;DHT22;10602;48.000;9.654;2022-07-17T04:16:43;13.60;99.90
20885;DHT22;10602;48.000;9.654;2022-07-17T04:19:10;13.60;99.90
20885;DHT22;10602;48.000;9.654;2022-07-17T04:21:41;13.60;99.90
20885;DHT22;10602;48.000;9.654;2022-07-17T04:24:08;13.70;99.90
20885;DHT22;10602;48.000;9.654;2022-07-17T04:26:36;13.80;99.90
20885;DHT22;10602;48.000;9.654;2022-07-17T04:29:04;13.80;99.90
20885;DHT22;10602;48.000;9.654;2022-07-17T04:31:31;13.90;99.90
20885;DHT22;10602;48.000;9.654;2022-07-17T04:33:59;14.00;99.80
20885;DHT22;10602;48.000;9.654;2022-07-17T04:36:26;14.00;99.40
20885;DHT22;10602;48.000;9.654;2022-07-17T04:38:54;14.10;99.40
20885;DHT22;10602;48.000;9.654;2022-07-17T04:41:21;14.10;99.30
20885;DHT22;10602;48.000;9.654;2022-07-17T04:43:49;14.20;99.20
20885;DHT22;10602;48.000;9.654;2022-07-17T04:46:16;14.30;99.00
20885;DHT22;10602;48.000;9.654;2022-07-17T04:48:44;14.40;99.10
20885;DHT22;10602;48.000;9.654;2022-07-17T04:51:11;14.60;98.20
20885;DHT22;10602;48.000;9.654;2022-07-17T04:53:39;14.70;98.10
20885;DHT22;10602;48.000;9.654;2022-07-17T04:56:07;14.80;97.70
20885;DHT22;10602;48.000;9.654;2022-07-17T04:58:35;14.90;97.40
20885;DHT22;10602;48.000;9.654;2022-07-17T05:01:02;15.00;97.20
20885;DHT22;10602;48.000;9.654;2022-07-17T05:03:30;15.00;96.80
20885;DHT22;10602;48.000;9.654;2022-07-17T05:05:57;15.20;96.40
20885;DHT22;10602;48.000;9.654;2022-07-17T05:08:25;15.20;96.10
20885;DHT22;10602;48.000;9.654;2022-07-17T05:10:52;15.30;96.00
20885;DHT22;10602;48.000;9.654;2022-07-17T05:13:20;15.30;95.90
20885;DHT22;10602;48.000;9.654;2022-07-17T05:15:47;15.50;96.00
20885;DHT22;10602;48.000;9.654;2022-07-17T05:18:16;15.60;95.60
20885;DHT22;10602;48.000;9.654;2022-07-17T05:20:43;15.80;95.30
20885;DHT22;10602;48.000;9.654;2022-07-17T05:23:10;15.90;95.20
20885;DHT22;10602;48.000;9.654;2022-07-17T05:25:38;16.10;94.70
20885;DHT22;10602;48.000;9.654;2022-07-17T05:28:05;16.40;94.00
20885;DHT22;10602;48.000;9.654;2022-07-17T05:30:33;16.40;93.60
20885;DHT22;10602;48.000;9.654;2022-07-17T05:33:00;16.50;93.50
20885;DHT22;10602;48.000;9.654;2022-07-17T05:35:28;16.60;93.20
20885;DHT22;10602;48.000;9.654;2022-07-17T05:37:55;16.80;93.40
20885;DHT22;10602;48.000;9.654;2022-07-17T05:40:23;16.90;93.20
20885;DHT22;10602;48.000;9.654;2022-07-17T05:42:52;17.10;92.60
20885;DHT22;10602;48.000;9.654;2022-07-17T05:45:19;17.20;92.60
20885;DHT22;10602;48.000;9.654;2022-07-17T05:47:47;17.30;92.60
20885;DHT22;10602;48.000;9.654;2022-07-17T05:50:15;17.50;92.40
20885;DHT22;10602;48.000;9.654;2022-07-17T05:52:42;17.70;91.80
20885;DHT22;10602;48.000;9.654;2022-07-17T05:55:10;17.80;90.30
20885;DHT22;10602;48.000;9.654;2022-07-17T05:57:37;17.90;88.40
20885;DHT22;10602;48.000;9.654;2022-07-17T06:00:06;18.10;86.70
20885;DHT22;10602;48.000;9.654;2022-07-17T06:02:33;18.20;85.10
20885;DHT22;10602;48.000;9.654;2022-07-17T06:05:02;18.40;84.70
20885;DHT22;10602;48.000;9.654;2022-07-17T06:07:29;18.40;84.00
20885;DHT22;10602;48.000;9.654;2022-07-17T06:09:58;18.70;83.40
20885;DHT22;10602;48.000;9.654;2022-07-17T06:12:25;18.90;82.50
20885;DHT22;10602;48.000;9.654;2022-07-17T06:14:53;19.00;80.50
20885;DHT22;10602;48.000;9.654;2022-07-17T06:17:20;19.20;80.80
20885;DHT22;10602;48.000;9.654;2022-07-17T06:19:48;19.40;80.40
20885;DHT22;10602;48.000;9.654;2022-07-17T06:22:19;19.50;79.20
20885;DHT22;10602;48.000;9.654;2022-07-17T06:24:47;19.60;79.10
20885;DHT22;10602;48.000;9.654;2022-07-17T06:27:15;19.80;78.80
20885;DHT22;10602;48.000;9.654;2022-07-17T06:29:42;19.90;75.80
20885;DHT22;10602;48.000;9.654;2022-07-17T06:32:10;20.00;75.50
20885;DHT22;10602;48.000;9.654;2022-07-17T06:34:37;20.20;74.10
20885;DHT22;10602;48.000;9.654;2022-07-17T06:37:05;20.50;72.70
20885;DHT22;10602;48.000;9.654;2022-07-17T06:39:33;20.60;73.40
20885;DHT22;10602;48.000;9.654;2022-07-17T06:42:01;20.80;71.40
20885;DHT22;10602;48.000;9.654;2022-07-17T06:44:28;21.00;70.70
20885;DHT22;10602;48.000;9.654;2022-07-17T06:46:56;21.10;70.80
20885;DHT22;10602;48.000;9.654;2022-07-17T06:49:23;21.20;70.10
20885;DHT22;10602;48.000;9.654;2022-07-17T06:51:51;21.10;69.70
20885;DHT22;10602;48.000;9.654;2022-07-17T06:54:18;21.30;69.90
20885;DHT22;10602;48.000;9.654;2022-07-17T06:56:47;21.40;69.00
20885;DHT22;10602;48.000;9.654;2022-07-17T06:59:15;21.60;67.70
20885;DHT22;10602;48.000;9.654;2022-07-17T07:01:43;21.60;67.70
20885;DHT22;10602;48.000;9.654;2022-07-17T07:04:10;21.70;66.90
20885;DHT22;10602;48.000;9.654;2022-07-17T07:06:38;21.90;66.90
20885;DHT22;10602;48.000;9.654;2022-07-17T07:09:05;22.20;65.80
20885;DHT22;10602;48.000;9.654;2022-07-17T07:11:33;22.30;65.00
20885;DHT22;10602;48.000;9.654;2022-07-17T07:14:00;22.40;65.40
20885;DHT22;10602;48.000;9.654;2022-07-17T07:16:28;22.70;64.90
20885;DHT22;10602;48.000;9.654;2022-07-17T07:18:55;23.00;62.90
20885;DHT22;10602;48.000;9.654;2022-07-17T07:21:23;23.10;62.30
20885;DHT22;10602;48.000;9.654;2022-07-17T07:23:53;23.20;62.80
20885;DHT22;10602;48.000;9.654;2022-07-17T07:26:22;23.50;63.10
20885;DHT22;10602;48.000;9.654;2022-07-17T07:28:49;23.60;61.30
20885;DHT22;10602;48.000;9.654;2022-07-17T07:31:17;23.90;59.80
20885;DHT22;10602;48.000;9.654;2022-07-17T07:33:44;24.00;60.80
20885;DHT22;10602;48.000;9.654;2022-07-17T07:36:12;24.10;59.10
20885;DHT22;10602;48.000;9.654;2022-07-17T07:38:40;24.20;59.40
20885;DHT22;10602;48.000;9.654;2022-07-17T07:41:07;24.20;58.50
20885;DHT22;10602;48.000;9.654;2022-07-17T07:43:35;24.30;57.20
20885;DHT22;10602;48.000;9.654;2022-07-17T07:46:03;24.50;56.50
20885;DHT22;10602;48.000;9.654;2022-07-17T07:48:31;24.60;56.10
20885;DHT22;10602;48.000;9.654;2022-07-17T07:50:58;24.60;54.40
20885;DHT22;10602;48.000;9.654;2022-07-17T07:53:26;24.70;54.60
20885;DHT22;10602;48.000;9.654;2022-07-17T07:55:54;24.70;53.10
20885;DHT22;10602;48.000;9.654;2022-07-17T07:58:21;24.60;52.60
20885;DHT22;10602;48.000;9.654;2022-07-17T08:00:49;24.60;52.50
20885;DHT22;10602;48.000;9.654;2022-07-17T08:03:16;24.60;51.90
20885;DHT22;10602;48.000;9.654;2022-07-17T08:05:44;24.80;51.80
20885;DHT22;10602;48.000;9.654;2022-07-17T08:08:11;24.90;50.90
20885;DHT22;10602;48.000;9.654;2022-07-17T08:10:39;25.10;50.60
20885;DHT22;10602;48.000;9.654;2022-07-17T08:13:06;25.20;50.40
20885;DHT22;10602;48.000;9.654;2022-07-17T08:15:35;25.40;51.40
20885;DHT22;10602;48.000;9.654;2022-07-17T08:18:03;25.60;49.70
20885;DHT22;10602;48.000;9.654;2022-07-17T08:20:30;25.70;49.20
20885;DHT22;10602;48.000;9.654;2022-07-17T08:22:58;25.90;49.20
20885;DHT22;10602;48.000;9.654;2022-07-17T08:25:25;26.00;48.30
20885;DHT22;10602;48.000;9.654;2022-07-17T08:27:53;25.90;48.00
20885;DHT22;10602;48.000;9.654;2022-07-17T08:30:21;26.00;48.60
20885;DHT22;10602;48.000;9.654;2022-07-17T08:33:08;26.10;47.70
20885;DHT22;10602;48.000;9.654;2022-07-17T08:35:36;26.40;48.10
20885;DHT22;10602;48.000;9.654;2022-07-17T08:38:04;26.50;48.10
20885;DHT22;10602;48.000;9.654;2022-07-17T08:40:34;26.60;46.80
20885;DHT22;10602;48.000;9.654;2022-07-17T08:43:04;26.60;47.50
20885;DHT22;10602;48.000;9.654;2022-07-17T08:45:33;26.70;47.30
20885;DHT22;10602;48.000;9.654;2022-07-17T08:48:01;27.00;46.60
20885;DHT22;10602;48.000;9.654;2022-07-17T08:50:32;26.90;44.60
20885;DHT22;10602;48.000;9.654;2022-07-17T08:53:01;27.20;45.50
20885;DHT22;10602;48.000;9.654;2022-07-17T08:55:29;27.30;46.20
20885;DHT22;10602;48.000;9.654;2022-07-17T08:57:56;27.60;45.40
20885;DHT22;10602;48.000;9.654;2022-07-17T09:00:25;27.40;46.20
20885;DHT22;10602;48.000;9.654;2022-07-17T09:03:01;27.30;45.90
20885;DHT22;10602;48.000;9.654;2022-07-17T09:05:32;27.30;46.30
20885;DHT22;10602;48.000;9.654;2022-07-17T09:08:00;27.70;46.30
20885;DHT22;10602;48.000;9.654;2022-07-17T09:10:38;27.90;45.90
20885;DHT22;10602;48.000;9.654;2022-07-17T09:13:12;28.20;44.90
20885;DHT22;10602;48.000;9.654;2022-07-17T09:15:33;27.90;43.90
20885;DHT22;10602;48.000;9.654;2022-07-17T09:18:00;27.90;46.40
20885;DHT22;10602;48.000;9.654;2022-07-17T09:20:28;28.40;46.30
20885;DHT22;10602;48.000;9.654;2022-07-17T09:22:57;28.50;45.00
20885;DHT22;10602;48.000;9.654;2022-07-17T09:25:39;28.80;44.70
20885;DHT22;10602;48.000;9.654;2022-07-17T09:28:08;28.90;44.80
20885;DHT22;10602;48.000;9.654;2022-07-17T09:30:39;28.90;43.50
20885;DHT22;10602;48.000;9.654;2022-07-17T09:33:15;28.70;42.40
20885;DHT22;10602;48.000;9.654;2022-07-17T09:35:51;28.60;44.20
20885;DHT22;10602;48.000;9.654;2022-07-17T09:38:26;28.80;42.30
20885;DHT22;10602;48.000;9.654;2022-07-17T09:41:04;28.80;42.80
20885;DHT22;10602;48.000;9.654;2022-07-17T09:43:51;28.80;42.10
20885;DHT22;10602;48.000;9.654;2022-07-17T09:46:25;28.90;43.00
20885;DHT22;10602;48.000;9.654;2022-07-17T09:48:55;28.80;42.00
20885;DHT22;10602;48.000;9.654;2022-07-17T09:51:28;29.20;42.40
20885;DHT22;10602;48.000;9.654;2022-07-17T09:54:00;29.40;41.00
20885;DHT22;10602;48.000;9.654;2022-07-17T09:56:30;29.10;41.20
20885;DHT22;10602;48.000;9.654;2022-07-17T09:59:06;29.30;42.50
20885;DHT22;10602;48.000;9.654;2022-07-17T10:01:38;29.80;41.70
20885;DHT22;10602;48.000;9.654;2022-07-17T10:04:05;30.10;40.70
20885;DHT22;10602;48.000;9.654;2022-07-17T10:06:33;30.00;39.20
20885;DHT22;10602;48.000;9.654;2022-07-17T10:09:01;29.60;38.90
20885;DHT22;10602;48.000;9.654;2022-07-17T10:11:36;29.60;39.00
20885;DHT22;10602;48.000;9.654;2022-07-17T10:14:08;30.00;40.70
20885;DHT22;10602;48.000;9.654;2022-07-17T10:16:35;30.00;38.60
20885;DHT22;10602;48.000;9.654;2022-07-17T10:19:22;30.10;37.80
20885;DHT22;10602;48.000;9.654;2022-07-17T10:21:56;30.20;38.40
20885;DHT22;10602;48.000;9.654;2022-07-17T10:24:24;30.40;39.20
20885;DHT22;10602;48.000;9.654;2022-07-17T10:26:52;30.60;38.50
20885;DHT22;10602;48.000;9.654;2022-07-17T10:32:19;31.10;37.70
20885;DHT22;10602;48.000;9.654;2022-07-17T10:34:57;31.40;36.80
20885;DHT22;10602;48.000;9.654;2022-07-17T10:40:18;31.60;36.70
20885;DHT22;10602;48.000;9.654;2022-07-17T10:42:54;32.10;36.70
20885;DHT22;10602;48.000;9.654;2022-07-17T10:45:44;32.30;35.90
20885;DHT22;10602;48.000;9.654;2022-07-17T10:48:21;32.10;35.40
20885;DHT22;10602;48.000;9.654;2022-07-17T10:50:51;32.10;35.90
20885;DHT22;10602;48.000;9.654;2022-07-17T10:53:21;32.30;35.80
20885;DHT22;10602;48.000;9.654;2022-07-17T10:55:53;31.90;35.20
20885;DHT22;10602;48.000;9.654;2022-07-17T10:58:29;32.00;34.70
20885;DHT22;10602;48.000;9.654;2022-07-17T11:01:00;31.80;35.20
20885;DHT22;10602;48.000;9.654;2022-07-17T11:03:30;32.00;34.90
20885;DHT22;10602;48.000;9.654;2022-07-17T11:06:15;32.30;35.40
20885;DHT22;10602;48.000;9.654;2022-07-17T11:08:45;32.40;34.90
20885;DHT22;10602;48.000;9.654;2022-07-17T11:11:14;32.60;36.00
20885;DHT22;10602;48.000;9.654;2022-07-17T11:13:42;32.70;33.80
20885;DHT22;10602;48.000;9.654;2022-07-17T11:16:09;32.80;34.40
20885;DHT22;10602;48.000;9.654;2022-07-17T11:18:37;33.30;34.90
20885;DHT22;10602;48.000;9.654;2022-07-17T11:21:06;33.40;34.00
20885;DHT22;10602;48.000;9.654;2022-07-17T11:23:34;33.40;33.50
20885;DHT22;10602;48.000;9.654;2022-07-17T11:26:04;33.80;32.90
20885;DHT22;10602;48.000;9.654;2022-07-17T11:28:37;33.90;33.10
20885;DHT22;10602;48.000;9.654;2022-07-17T11:33:53;34.50;30.40
20885;DHT22;10602;48.000;9.654;2022-07-17T11:36:35;34.50;30.50
20885;DHT22;10602;48.000;9.654;2022-07-17T11:39:06;34.60;29.90
20885;DHT22;10602;48.000;9.654;2022-07-17T11:41:43;35.00;30.10
20885;DHT22;10602;48.000;9.654;2022-07-17T11:44:13;34.70;30.20
20885;DHT22;10602;48.000;9.654;2022-07-17T11:46:42;34.70;30.80
20885;DHT22;10602;48.000;9.654;2022-07-17T11:49:25;34.80;31.40
20885;DHT22;10602;48.000;9.654;2022-07-17T11:51:55;35.10;31.50
20885;DHT22;10602;48.000;9.654;2022-07-17T11:54:23;35.50;29.80
20885;DHT22;10602;48.000;9.654;2022-07-17T11:56:56;35.70;30.00
20885;DHT22;10602;48.000;9.654;2022-07-17T11:59:31;35.70;28.30
20885;DHT22;10602;48.000;9.654;2022-07-17T12:01:56;35.80;28.80
20885;DHT22;10602;48.000;9.654;2022-07-17T12:04:23;35.80;27.90
20885;DHT22;10602;48.000;9.654;2022-07-17T12:07:01;35.80;27.10
20885;DHT22;10602;48.000;9.654;2022-07-17T12:09:31;35.90;28.20
20885;DHT22;10602;48.000;9.654;2022-07-17T12:12:03;36.00;27.50
20885;DHT22;10602;48.000;9.654;2022-07-17T12:14:30;36.00;27.00
20885;DHT22;10602;48.000;9.654;2022-07-17T12:17:03;35.80;27.50
20885;DHT22;10602;48.000;9.654;2022-07-17T12:19:31;35.80;28.20
20885;DHT22;10602;48.000;9.654;2022-07-17T12:22:04;35.90;27.70
20885;DHT22;10602;48.000;9.654;2022-07-17T12:24:37;36.20;27.30
20885;DHT22;10602;48.000;9.654;2022-07-17T12:27:07;36.20;27.00
20885;DHT22;10602;48.000;9.654;2022-07-17T12:29:35;36.30;27.10
20885;DHT22;10602;48.000;9.654;2022-07-17T12:32:06;35.90;28.50
20885;DHT22;10602;48.000;9.654;2022-07-17T12:34:41;36.20;28.40
20885;DHT22;10602;48.000;9.654;2022-07-17T12:37:04;35.90;27.40
20885;DHT22;10602;48.000;9.654;2022-07-17T12:39:32;35.80;27.30
20885;DHT22;10602;48.000;9.654;2022-07-17T12:41:59;35.40;27.80
20885;DHT22;10602;48.000;9.654;2022-07-17T12:44:27;35.70;28.20
20885;DHT22;10602;48.000;9.654;2022-07-17T12:46:54;35.80;27.20
20885;DHT22;10602;48.000;9.654;2022-07-17T12:49:22;35.60;27.80
20885;DHT22;10602;48.000;9.654;2022-07-17T12:51:52;35.10;26.60
20885;DHT22;10602;48.000;9.654;2022-07-17T12:54:19;34.90;28.70
20885;DHT22;10602;48.000;9.654;2022-07-17T12:56:47;34.90;28.00
20885;DHT22;10602;48.000;9.654;2022-07-17T12:59:15;35.00;27.50
20885;DHT22;10602;48.000;9.654;2022-07-17T13:01:42;35.10;26.60
20885;DHT22;10602;48.000;9.654;2022-07-17T13:04:12;34.90;26.80
20885;DHT22;10602;48.000;9.654;2022-07-17T13:06:39;34.80;26.70
20885;DHT22;10602;48.000;9.654;2022-07-17T13:09:07;34.50;27.30
20885;DHT22;10602;48.000;9.654;2022-07-17T13:11:35;34.60;28.00
20885;DHT22;10602;48.000;9.654;2022-07-17T13:14:03;34.20;27.00
20885;DHT22;10602;48.000;9.654;2022-07-17T13:16:31;33.50;27.80
20885;DHT22;10602;48.000;9.654;2022-07-17T13:18:58;33.60;29.20
20885;DHT22;10602;48.000;9.654;2022-07-17T13:21:26;33.70;29.50
20885;DHT22;10602;48.000;9.654;2022-07-17T13:23:53;33.50;29.00
20885;DHT22;10602;48.000;9.654;2022-07-17T13:26:21;33.40;29.00
20885;DHT22;10602;48.000;9.654;2022-07-17T13:28:48;33.20;28.90
20885;DHT22;10602;48.000;9.654;2022-07-17T13:31:16;33.10;29.00
20885;DHT22;10602;48.000;9.654;2022-07-17T13:33:44;32.80;29.10
20885;DHT22;10602;48.000;9.654;2022-07-17T13:36:11;32.60;29.30
20885;DHT22;10602;48.000;9.654;2022-07-17T13:38:39;32.50;29.40
20885;DHT22;10602;48.000;9.654;2022-07-17T13:41:06;32.50;29.10
20885;DHT22;10602;48.000;9.654;2022-07-17T13:43:34;32.40;29.00
20885;DHT22;10602;48.000;9.654;2022-07-17T13:46:01;32.40;29.60
20885;DHT22;10602;48.000;9.654;2022-07-17T13:48:29;32.20;30.00
20885;DHT22;10602;48.000;9.654;2022-07-17T13:51:00;32.30;29.80
20885;DHT22;10602;48.000;9.654;2022-07-17T13:53:27;32.00;29.50
20885;DHT22;10602;48.000;9.654;2022-07-17T13:55:55;31.80;29.20
20885;DHT22;10602;48.000;9.654;2022-07-17T13:58:23;31.00;29.70
20885;DHT22;10602;48.000;9.654;2022-07-17T14:00:51;30.70;29.30
20885;DHT22;10602;48.000;9.654;2022-07-17T14:03:18;30.70;29.80
20885;DHT22;10602;48.000;9.654;2022-07-17T14:05:46;30.70;29.30
20885;DHT22;10602;48.000;9.654;2022-07-17T14:08:13;30.60;29.60
20885;DHT22;10602;48.000;9.654;2022-07-17T14:10:41;30.50;29.90
20885;DHT22;10602;48.000;9.654;2022-07-17T14:13:09;30.70;30.00
20885;DHT22;10602;48.000;9.654;2022-07-17T14:15:37;30.90;30.20
20885;DHT22;10602;48.000;9.654;2022-07-17T14:18:04;31.10;29.60
20885;DHT22;10602;48.000;9.654;2022-07-17T14:20:32;31.10;29.30
20885;DHT22;10602;48.000;9.654;2022-07-17T14:23:00;31.20;28.90
20885;DHT22;10602;48.000;9.654;2022-07-17T14:25:27;31.10;29.20
20885;DHT22;10602;48.000;9.654;2022-07-17T14:27:55;31.00;29.50
20885;DHT22;10602;48.000;9.654;2022-07-17T14:30:23;31.00;30.00
20885;DHT22;10602;48.000;9.654;2022-07-17T14:32:51;30.70;29.80
20885;DHT22;10602;48.000;9.654;2022-07-17T14:35:19;30.70;28.70
20885;DHT22;10602;48.000;9.654;2022-07-17T14:37:47;30.80;29.00
20885;DHT22;10602;48.000;9.654;2022-07-17T14:40:14;31.00;29.30
20885;DHT22;10602;48.000;9.654;2022-07-17T14:42:42;30.80;28.40
20885;DHT22;10602;48.000;9.654;2022-07-17T14:45:10;30.80;28.70
20885;DHT22;10602;48.000;9.654;2022-07-17T14:47:39;30.70;29.10
20885;DHT22;10602;48.000;9.654;2022-07-17T14:50:07;30.70;28.90
20885;DHT22;10602;48.000;9.654;2022-07-17T14:52:35;30.60;29.40
20885;DHT22;10602;48.000;9.654;2022-07-17T14:55:03;30.40;30.00
20885;DHT22;10602;48.000;9.654;2022-07-17T14:57:30;30.60;30.20
20885;DHT22;10602;48.000;9.654;2022-07-17T14:59:58;30.60;29.80
20885;DHT22;10602;48.000;9.654;2022-07-17T15:02:25;30.60;28.50
20885;DHT22;10602;48.000;9.654;2022-07-17T15:04:53;30.50;28.60
20885;DHT22;10602;48.000;9.654;2022-07-17T15:07:20;30.40;29.70
20885;DHT22;10602;48.000;9.654;2022-07-17T15:09:48;30.30;29.40
20885;DHT22;10602;48.000;9.654;2022-07-17T15:12:15;30.40;29.20
20885;DHT22;10602;48.000;9.654;2022-07-17T15:14:43;30.50;28.40
20885;DHT22;10602;48.000;9.654;2022-07-17T15:17:10;30.50;28.90
20885;DHT22;10602;48.000;9.654;2022-07-17T15:19:38;30.40;29.20
20885;DHT22;10602;48.000;9.654;2022-07-17T15:22:05;30.40;28.30
20885;DHT22;10602;48.000;9.654;2022-07-17T15:24:33;30.30;28.20
20885;DHT22;10602;48.000;9.654;2022-07-17T15:27:00;30.30;28.70
20885;DHT22;10602;48.000;9.654;2022-07-17T15:29:28;30.30;29.20
20885;DHT22;10602;48.000;9.654;2022-07-17T15:31:55;30.30;28.80
20885;DHT22;10602;48.000;9.654;2022-07-17T15:34:23;30.10;29.20
20885;DHT22;10602;48.000;9.654;2022-07-17T15:36:50;30.00;29.90
20885;DHT22;10602;48.000;9.654;2022-07-17T15:39:18;30.00;30.00
20885;DHT22;10602;48.000;9.654;2022-07-17T15:41:45;30.10;29.70
20885;DHT22;10602;48.000;9.654;2022-07-17T15:44:13;29.90;29.40
20885;DHT22;10602;48.000;9.654;2022-07-17T15:46:43;29.70;29.70